Terminal Aerodrome Forecast
Issued by NWS Shreveport, LA

Home | Current Version | Previous Version | Text Only | Print | Product List | Glossary On
Versions: 1 2 3 4 5 6 7 8 9 10 11 12 13 14 15 16 17 18 19 20 21
583
FTUS44 KSHV 302346
TAFGGG
TAF
KGGG 302346Z 0100/0124 27013G19KT P6SM FEW090
     FM010300 23005KT P6SM SKC
     FM011600 24010G16KT P6SM SKC
     FM011700 24011G17KT P6SM SKC=

USA.gov is the U.S. government's official web portal to all federal, state and local government web resources and services.